createdAt,value
2022-11-03T00:00:12.788Z,100926.47
2022-11-03T00:02:39.688Z,100904.50
2022-11-03T00:05:26.375Z,100923.34
2022-11-03T00:07:52.813Z,100897.88
2022-11-03T00:10:19.520Z,100904.00
2022-11-03T00:12:45.971Z,100845.75
2022-11-03T00:15:12.473Z,100880.13
2022-11-03T00:17:38.904Z,100898.50
2022-11-03T00:20:05.908Z,100896.56
2022-11-03T00:22:33.251Z,100896.88
2022-11-03T00:25:00.068Z,100897.50
2022-11-03T00:27:26.717Z,100870.81
2022-11-03T00:29:53.226Z,100894.50
2022-11-03T00:32:19.743Z,100900.66
2022-11-03T00:34:46.149Z,100907.41
2022-11-03T00:37:12.771Z,100887.69
2022-11-03T00:39:39.231Z,100878.63
2022-11-03T00:42:05.796Z,100895.22
2022-11-03T00:44:32.316Z,100854.72
2022-11-03T00:46:58.762Z,100886.53
2022-11-03T00:49:25.613Z,100893.13
2022-11-03T00:51:52.063Z,100837.88
2022-11-03T00:54:18.504Z,100878.34
2022-11-03T00:56:44.964Z,100837.13
2022-11-03T00:59:11.409Z,100875.00
2022-11-03T01:01:47.319Z,100880.59
2022-11-03T01:04:36.677Z,100885.69
2022-11-03T01:07:04.467Z,100876.25
2022-11-03T01:09:36.560Z,100858.16
2022-11-03T01:12:07.846Z,100870.19
2022-11-03T01:14:43.113Z,100868.53
2022-11-03T01:17:21.307Z,100870.03
2022-11-03T01:19:47.983Z,100873.31
2022-11-03T01:22:15.209Z,100862.34
2022-11-03T01:24:42.263Z,100870.41
2022-11-03T01:27:10.689Z,100872.25
2022-11-03T01:29:37.132Z,100860.59
2022-11-03T01:32:03.735Z,100858.25
2022-11-03T01:34:30.460Z,100849.53
2022-11-03T01:36:56.954Z,100859.03
2022-11-03T01:39:23.467Z,100811.75
2022-11-03T01:41:51.831Z,100858.66
2022-11-03T01:44:18.621Z,100854.88
2022-11-03T01:47:03.189Z,100836.78
2022-11-03T01:49:35.602Z,100834.00
2022-11-03T01:52:10.392Z,100780.97
2022-11-03T01:54:38.186Z,100830.63
2022-11-03T01:57:09.850Z,100770.22
2022-11-03T01:59:36.441Z,100815.19
2022-11-03T02:02:03.261Z,100809.94
2022-11-03T02:04:32.748Z,100754.88
2022-11-03T02:07:25.707Z,100686.19
2022-11-03T02:09:52.188Z,100766.34
2022-11-03T02:12:20.153Z,100766.97
2022-11-03T02:14:55.510Z,100663.78
2022-11-03T02:17:24.782Z,100790.41
2022-11-03T02:20:01.438Z,100756.91
2022-11-03T02:22:46.755Z,100786.38
2022-11-03T02:25:47.003Z,100716.94
2022-11-03T02:28:19.294Z,100689.38
2022-11-03T02:31:07.773Z,100776.31
2022-11-03T02:33:40.699Z,100766.72
2022-11-03T02:36:12.982Z,100731.88
2022-11-03T02:38:47.302Z,100759.00
2022-11-03T02:41:16.143Z,100687.16
2022-11-03T02:43:43.977Z,100676.78
2022-11-03T02:46:12.153Z,100680.59
2022-11-03T02:48:38.794Z,100692.50
2022-11-03T02:51:05.362Z,100705.66
2022-11-03T02:53:36.763Z,100717.06
2022-11-03T02:56:09.376Z,100688.06
2022-11-03T02:58:52.303Z,100688.19
2022-11-03T03:01:29.304Z,100568.31
2022-11-03T03:04:01.692Z,100685.25
2022-11-03T03:06:34.875Z,100628.34
2022-11-03T03:09:05.155Z,100714.38
2022-11-03T03:11:38.690Z,100622.38
2022-11-03T03:14:19.062Z,100708.41
2022-11-03T03:17:01.755Z,100712.63
2022-11-03T03:19:54.281Z,100675.22
2022-11-03T03:22:41.207Z,100708.16
2022-11-03T03:25:20.976Z,100708.41
2022-11-03T03:27:54.130Z,100543.41
2022-11-03T03:30:21.724Z,100678.44
2022-11-03T03:32:49.831Z,100685.69
2022-11-03T03:35:19.696Z,100614.41
2022-11-03T03:37:48.728Z,100660.03
2022-11-03T03:40:20.105Z,100558.19
2022-11-03T03:42:47.683Z,100688.00
2022-11-03T03:45:14.875Z,100694.16
2022-11-03T03:47:41.506Z,100616.81
2022-11-03T03:50:08.276Z,100632.72
2022-11-03T03:52:36.050Z,100675.34
2022-11-03T03:55:02.527Z,100617.28
2022-11-03T03:57:30.704Z,100656.88
2022-11-03T03:59:57.558Z,100636.25
2022-11-03T04:02:24.288Z,100669.06
2022-11-03T04:04:50.877Z,100675.16
2022-11-03T04:07:40.818Z,100570.69
2022-11-03T04:10:10.721Z,100668.13
2022-11-03T04:12:55.926Z,100634.13
2022-11-03T04:15:41.099Z,100624.66
2022-11-03T04:18:26.683Z,100617.97
2022-11-03T04:21:12.102Z,100611.88
2022-11-03T04:23:38.966Z,100650.78
2022-11-03T04:26:13.596Z,100646.94
2022-11-03T04:28:41.191Z,100639.75
2022-11-03T04:31:14.999Z,100638.69
2022-11-03T04:33:42.332Z,100644.00
2022-11-03T04:36:11.467Z,100553.91
2022-11-03T04:38:38.149Z,100637.03
2022-11-03T04:41:15.312Z,100619.78
2022-11-03T04:43:42.699Z,100622.59
2022-11-03T04:46:14.037Z,100633.34
2022-11-03T04:48:44.105Z,100626.13
2022-11-03T04:51:15.220Z,100623.44
2022-11-03T04:53:46.602Z,100597.84
2022-11-03T04:56:15.794Z,100612.25
2022-11-03T04:58:42.256Z,100619.09
2022-11-03T05:01:12.852Z,100609.53
2022-11-03T05:03:41.359Z,100615.47
2022-11-03T05:06:14.033Z,100567.78
2022-11-03T05:08:44.236Z,100586.28
2022-11-03T05:11:29.532Z,100597.69
2022-11-03T05:13:59.579Z,100599.63
2022-11-03T05:16:26.093Z,100583.91
2022-11-03T05:18:52.700Z,100574.91
2022-11-03T05:21:22.009Z,100580.13
2022-11-03T05:23:51.169Z,100588.25
2022-11-03T05:26:26.944Z,100549.38
2022-11-03T05:29:20.155Z,100548.66
2022-11-03T05:31:47.777Z,100582.00
2022-11-03T05:34:26.571Z,100571.50
2022-11-03T05:36:53.153Z,100572.06
2022-11-03T05:39:34.425Z,100563.78
2022-11-03T05:42:01.158Z,100501.75
2022-11-03T05:44:37.294Z,100576.78
2022-11-03T05:47:12.386Z,100534.28
2022-11-03T05:49:40.677Z,100576.94
2022-11-03T05:52:23.146Z,100573.88
2022-11-03T05:54:50.148Z,100501.56
2022-11-03T05:57:18.333Z,100570.56
2022-11-03T05:59:46.916Z,100563.53
2022-11-03T06:02:40.697Z,100535.97
2022-11-03T06:05:19.204Z,100544.34
2022-11-03T06:07:46.018Z,100517.97
2022-11-03T06:10:19.238Z,100534.34
2022-11-03T06:12:45.973Z,100477.59
2022-11-03T06:15:25.351Z,100522.47
2022-11-03T06:17:53.603Z,100492.53
2022-11-03T06:20:22.007Z,100511.59
2022-11-03T06:22:49.135Z,100480.72
2022-11-03T06:25:36.769Z,100462.34
2022-11-03T06:28:05.383Z,100450.38
2022-11-03T06:30:36.591Z,100487.28
2022-11-03T06:33:29.891Z,100435.31
2022-11-03T06:36:03.751Z,100521.38
2022-11-03T06:38:31.270Z,100503.53
2022-11-03T06:40:58.347Z,100439.16
2022-11-03T06:43:41.888Z,100517.03
2022-11-03T06:46:19.806Z,100514.19
2022-11-03T06:48:46.764Z,100515.34
2022-11-03T06:51:22.345Z,100498.91
2022-11-03T06:53:50.680Z,100505.34
2022-11-03T06:56:21.460Z,100504.66
2022-11-03T06:58:49.030Z,100464.69
2022-11-03T07:01:18.800Z,100493.44
2022-11-03T07:03:45.894Z,100494.22
2022-11-03T07:06:26.224Z,100489.31
2022-11-03T07:08:58.657Z,100392.94
2022-11-03T07:11:46.536Z,100486.91
2022-11-03T07:14:28.225Z,100467.34
2022-11-03T07:16:56.225Z,100473.63
2022-11-03T07:19:25.943Z,100399.97
2022-11-03T07:22:01.108Z,100435.53
2022-11-03T07:24:31.885Z,100455.09
2022-11-03T07:27:14.137Z,100450.53
2022-11-03T07:29:41.106Z,100457.97
2022-11-03T07:32:22.552Z,100423.53
2022-11-03T07:34:49.892Z,100449.41
2022-11-03T07:37:21.729Z,100429.53
2022-11-03T07:39:50.827Z,100433.47
2022-11-03T07:42:22.439Z,100445.63
2022-11-03T07:44:49.890Z,100359.88
2022-11-03T07:47:20.612Z,100425.59
2022-11-03T07:49:47.353Z,100426.44
2022-11-03T07:52:20.305Z,100390.63
2022-11-03T07:54:47.056Z,100426.84
2022-11-03T07:57:23.258Z,100423.16
2022-11-03T07:59:59.144Z,100417.47
2022-11-03T08:02:31.607Z,100320.81
2022-11-03T08:04:58.754Z,100380.78
2022-11-03T08:07:25.590Z,100366.34
2022-11-03T08:09:52.603Z,100276.19
2022-11-03T08:12:20.358Z,100408.28
2022-11-03T08:14:47.183Z,100397.16
2022-11-03T08:17:14.763Z,100399.34
2022-11-03T08:19:41.794Z,100351.31
2022-11-03T08:22:08.362Z,100395.09
2022-11-03T08:24:35.005Z,100399.13
2022-11-03T08:27:03.422Z,100334.84
2022-11-03T08:29:30.090Z,100305.06
2022-11-03T08:31:56.663Z,100236.59
2022-11-03T08:34:23.179Z,100315.81
2022-11-03T08:36:49.705Z,100372.63
2022-11-03T08:39:16.469Z,100348.81
2022-11-03T08:41:42.969Z,100363.53
2022-11-03T08:44:09.489Z,100307.91
2022-11-03T08:46:36.311Z,100312.69
2022-11-03T08:49:02.846Z,100242.63
2022-11-03T08:51:29.330Z,100281.59
2022-11-03T08:53:55.794Z,100277.75
2022-11-03T08:56:22.879Z,100359.31
2022-11-03T08:58:49.816Z,100312.34
2022-11-03T09:01:16.473Z,100345.94
2022-11-03T09:03:43.239Z,100266.69
2022-11-03T09:06:09.840Z,100263.81
2022-11-03T09:11:23.811Z,100247.34
2022-11-03T09:13:50.321Z,100272.88
2022-11-03T09:16:17.219Z,100265.06
2022-11-03T09:18:43.861Z,100218.22
2022-11-03T09:21:10.683Z,100184.81
2022-11-03T09:23:37.203Z,100310.50
2022-11-03T09:26:05.755Z,100278.22
2022-11-03T09:28:32.854Z,100249.13
2022-11-03T09:30:59.329Z,100254.47
2022-11-03T09:33:25.843Z,100284.44
2022-11-03T09:35:52.372Z,100292.28
2022-11-03T09:38:19.052Z,100176.28
2022-11-03T09:40:45.685Z,100247.28
2022-11-03T09:43:12.189Z,100250.88
2022-11-03T09:45:39.439Z,100190.38
2022-11-03T09:48:10.320Z,100271.94
2022-11-03T09:50:37.679Z,100164.88
2022-11-03T09:53:04.501Z,100262.16
2022-11-03T09:55:31.356Z,100217.78
2022-11-03T09:58:01.500Z,100248.16
2022-11-03T10:00:28.446Z,100241.50
2022-11-03T10:02:55.622Z,100196.44
2022-11-03T10:05:26.817Z,100218.59
2022-11-03T10:07:57.761Z,100196.00
2022-11-03T10:10:24.707Z,100185.25
2022-11-03T10:12:53.135Z,100115.22
2022-11-03T10:15:21.773Z,100168.34
2022-11-03T10:17:50.490Z,100181.56
2022-11-03T10:20:19.453Z,100201.59
2022-11-03T10:22:46.866Z,100172.84
2022-11-03T10:25:30.001Z,100180.41
2022-11-03T10:28:14.335Z,100203.69
2022-11-03T10:31:18.056Z,100195.47
2022-11-03T10:33:55.286Z,100190.56
2022-11-03T10:36:24.131Z,100166.13
2022-11-03T10:38:50.864Z,100141.50
2022-11-03T10:41:22.350Z,100189.59
2022-11-03T10:44:04.808Z,100183.44
2022-11-03T10:49:19.913Z,100127.09
2022-11-03T10:51:52.278Z,100154.72
2022-11-03T10:54:20.945Z,100125.16
2022-11-03T10:56:48.142Z,100050.72
2022-11-03T10:59:20.261Z,100064.13
2022-11-03T11:01:47.213Z,100015.13
2022-11-03T11:04:18.646Z,100045.53
2022-11-03T11:06:46.307Z,100096.94
2022-11-03T11:09:15.816Z,100053.06
2022-11-03T11:12:06.831Z,100087.47
2022-11-03T11:14:39.564Z,100089.25
2022-11-03T11:17:06.466Z,100067.22
2022-11-03T11:20:11.610Z,100074.75
2022-11-03T11:22:38.067Z,100041.06
2022-11-03T11:25:04.652Z,100092.22
2022-11-03T11:27:37.078Z,100071.75
2022-11-03T11:30:29.645Z,100056.66
2022-11-03T11:33:01.496Z,99972.97
2022-11-03T11:35:27.897Z,100050.00
2022-11-03T11:37:54.629Z,99974.00
2022-11-03T11:40:24.232Z,100013.88
2022-11-03T11:43:03.007Z,100015.84
2022-11-03T11:46:07.147Z,100008.25
2022-11-03T11:48:34.523Z,100001.34
2022-11-03T11:51:02.119Z,100008.50
2022-11-03T11:53:32.751Z,99848.72
2022-11-03T11:56:00.556Z,99963.28
2022-11-03T11:58:53.608Z,99981.88
2022-11-03T12:01:33.339Z,99989.28
2022-11-03T12:04:08.610Z,99891.84
2022-11-03T12:06:37.772Z,99947.22
2022-11-03T12:09:05.959Z,99957.34
2022-11-03T12:11:55.669Z,99921.06
2022-11-03T12:14:28.788Z,99955.16
2022-11-03T12:16:56.356Z,99881.56
2022-11-03T12:19:36.739Z,99959.06
2022-11-03T12:22:08.862Z,99947.88
2022-11-03T12:24:38.264Z,99937.16
2022-11-03T12:27:37.750Z,99887.16
2022-11-03T12:30:12.979Z,99853.13
2022-11-03T12:32:39.487Z,99793.28
2022-11-03T12:35:08.598Z,99919.38
2022-11-03T12:37:35.392Z,99916.94
2022-11-03T12:40:01.921Z,99891.91
2022-11-03T12:42:28.481Z,99861.44
2022-11-03T12:44:55.896Z,99897.69
2022-11-03T12:47:22.484Z,99884.88
2022-11-03T12:49:49.771Z,99885.31
2022-11-03T12:52:16.430Z,99784.72
2022-11-03T12:54:42.903Z,99878.13
2022-11-03T12:57:09.625Z,99821.25
2022-11-03T12:59:36.399Z,99834.28
2022-11-03T13:02:03.095Z,99704.50
2022-11-03T13:04:29.656Z,99822.84
2022-11-03T13:06:56.663Z,99798.31
2022-11-03T13:09:23.181Z,99788.72
2022-11-03T13:12:08.386Z,99762.53
2022-11-03T13:14:34.857Z,99758.47
2022-11-03T13:17:03.683Z,99832.59
2022-11-03T13:19:31.272Z,99814.03
2022-11-03T13:21:58.050Z,99737.78
2022-11-03T13:24:24.571Z,99737.44
2022-11-03T13:26:51.075Z,99802.81
2022-11-03T13:29:17.620Z,99717.44
2022-11-03T13:31:44.358Z,99641.44
2022-11-03T13:34:10.815Z,99766.50
2022-11-03T13:36:37.327Z,99627.56
2022-11-03T13:39:04.022Z,99715.06
2022-11-03T13:41:30.514Z,99641.44
2022-11-03T13:43:57.053Z,99633.34
2022-11-03T13:46:23.563Z,99734.19
2022-11-03T13:49:44.670Z,99661.53
2022-11-03T13:51:36.602Z,99633.38
2022-11-03T13:59:36.155Z,99695.50
2022-11-03T14:04:49.908Z,99705.53
2022-11-03T14:07:16.390Z,99691.78
2022-11-03T14:09:43.347Z,99695.53
2022-11-03T14:12:28.446Z,99633.88
2022-11-03T14:14:54.938Z,99692.31
2022-11-03T14:17:21.507Z,99663.00
2022-11-03T14:19:52.355Z,99610.78
2022-11-03T14:22:23.871Z,99700.03
2022-11-03T14:24:51.451Z,99695.28
2022-11-03T14:27:19.371Z,99614.31
2022-11-03T14:29:49.369Z,99580.03
2022-11-03T14:32:16.913Z,99601.50
2022-11-03T14:34:46.409Z,99660.88
2022-11-03T14:37:13.415Z,99580.03
2022-11-03T14:39:40.645Z,99645.00
2022-11-03T14:42:15.214Z,99602.59
2022-11-03T14:44:43.919Z,99624.09
2022-11-03T14:47:15.472Z,99566.22
2022-11-03T14:49:42.061Z,99552.69
2022-11-03T14:52:08.752Z,99603.69
2022-11-03T14:54:36.189Z,99607.94
2022-11-03T14:57:03.510Z,99616.84
2022-11-03T14:59:30.102Z,99549.66
2022-11-03T15:01:57.324Z,99596.00
2022-11-03T15:04:24.299Z,99589.41
2022-11-03T15:06:50.826Z,99613.06
2022-11-03T15:09:18.152Z,99558.03
2022-11-03T15:11:45.306Z,99571.88
2022-11-03T15:14:12.505Z,99581.31
2022-11-03T15:16:39.984Z,99577.63
2022-11-03T15:19:07.856Z,99573.13
2022-11-03T15:21:34.972Z,99543.84
2022-11-03T15:26:48.226Z,99466.97
2022-11-03T15:29:14.742Z,99553.34
2022-11-03T15:31:47.191Z,99515.22
2022-11-03T15:34:15.378Z,99446.47
2022-11-03T15:36:42.174Z,99547.72
2022-11-03T15:39:08.772Z,99456.75
2022-11-03T15:41:35.484Z,99503.78
2022-11-03T15:44:02.018Z,99447.19
2022-11-03T15:46:28.539Z,99571.31
2022-11-03T15:48:56.576Z,99545.13
2022-11-03T15:51:23.249Z,99539.31
2022-11-03T15:53:53.577Z,99513.25
2022-11-03T15:56:25.026Z,99534.44
2022-11-03T15:58:51.573Z,99511.50
2022-11-03T16:01:18.136Z,99474.75
2022-11-03T16:03:44.840Z,99558.97
2022-11-03T16:06:11.300Z,99473.03
2022-11-03T16:08:38.161Z,99444.63
2022-11-03T16:11:04.823Z,99522.22
2022-11-03T16:13:31.918Z,99445.31
2022-11-03T16:15:58.568Z,99534.25
2022-11-03T16:18:25.191Z,99513.44
2022-11-03T16:20:51.776Z,99475.78
2022-11-03T16:23:18.258Z,99488.06
2022-11-03T16:25:44.768Z,99504.84
2022-11-03T16:28:11.375Z,99480.88
2022-11-03T16:30:38.635Z,99491.56
2022-11-03T16:33:05.470Z,99504.56
2022-11-03T16:35:33.085Z,99495.69
2022-11-03T16:37:59.793Z,99434.16
2022-11-03T16:40:26.599Z,99465.25
2022-11-03T16:42:53.176Z,99486.28
2022-11-03T16:45:22.119Z,99479.94
2022-11-03T16:47:49.982Z,99485.13
2022-11-03T16:50:18.187Z,99483.28
2022-11-03T16:52:45.905Z,99480.97
2022-11-03T16:55:13.279Z,99486.69
2022-11-03T16:57:39.790Z,99488.34
2022-11-03T17:00:08.492Z,99481.84
2022-11-03T17:02:35.111Z,99478.00
2022-11-03T17:05:01.646Z,99479.47
2022-11-03T17:07:28.288Z,99284.69
2022-11-03T17:09:56.074Z,99476.50
2022-11-03T17:12:22.794Z,99396.81
2022-11-03T17:14:52.647Z,99476.97
2022-11-03T17:17:22.226Z,99485.47
2022-11-03T17:19:48.705Z,99451.75
2022-11-03T17:22:15.242Z,99441.44
2022-11-03T17:24:41.673Z,99464.06
2022-11-03T17:27:14.436Z,99411.44
2022-11-03T17:29:44.030Z,99473.25
2022-11-03T17:32:29.214Z,99464.81
2022-11-03T17:34:57.144Z,99457.53
2022-11-03T17:37:25.461Z,99290.78
2022-11-03T17:39:52.258Z,99404.69
2022-11-03T17:42:26.213Z,99454.19
2022-11-03T17:44:55.794Z,99432.00
2022-11-03T17:47:23.419Z,99450.53
2022-11-03T17:49:50.463Z,99419.50
2022-11-03T17:52:24.921Z,99442.00
2022-11-03T17:54:56.251Z,99347.69
2022-11-03T17:57:23.336Z,99339.25
2022-11-03T17:59:51.536Z,99426.69
2022-11-03T18:02:20.597Z,99424.06
2022-11-03T18:04:47.862Z,99416.22
2022-11-03T18:07:26.109Z,99366.28
2022-11-03T18:09:52.972Z,99417.91
2022-11-03T18:12:43.326Z,99398.78
2022-11-03T18:15:19.577Z,99384.44
2022-11-03T18:17:46.829Z,99392.09
2022-11-03T18:20:16.075Z,99237.03
2022-11-03T18:22:42.577Z,99268.63
2022-11-03T18:25:16.450Z,99339.84
2022-11-03T18:27:43.967Z,99380.47
2022-11-03T18:30:12.540Z,99374.44
2022-11-03T18:32:40.349Z,99365.63
2022-11-03T18:35:07.682Z,99296.25
2022-11-03T18:37:34.352Z,99331.03
2022-11-03T18:40:02.449Z,99364.47
2022-11-03T18:42:29.502Z,99337.69
2022-11-03T18:45:01.503Z,99340.38
2022-11-03T18:47:29.276Z,99298.41
2022-11-03T18:49:55.765Z,99284.28
2022-11-03T18:52:22.338Z,99290.28
2022-11-03T18:54:50.325Z,99299.09
2022-11-03T18:57:21.837Z,99241.69
2022-11-03T18:59:48.556Z,99309.22
2022-11-03T19:02:18.157Z,99322.72
2022-11-03T19:04:45.579Z,99309.19
2022-11-03T19:07:31.650Z,99309.72
2022-11-03T19:09:59.535Z,99313.88
2022-11-03T19:12:27.296Z,99234.41
2022-11-03T19:14:54.117Z,99208.91
2022-11-03T19:17:23.413Z,99313.22
2022-11-03T19:19:52.198Z,99277.66
2022-11-03T19:22:22.889Z,99322.50
2022-11-03T19:24:49.429Z,99322.81
2022-11-03T19:27:22.868Z,99323.00
2022-11-03T19:29:49.526Z,99273.31
2022-11-03T19:32:22.007Z,99301.91
2022-11-03T19:34:54.769Z,99316.19
2022-11-03T19:37:21.235Z,99338.16
2022-11-03T19:39:48.478Z,99279.28
2022-11-03T19:42:29.352Z,99323.16
2022-11-03T19:45:00.247Z,99326.84
2022-11-03T19:47:32.564Z,99295.38
2022-11-03T19:50:04.344Z,99296.56
2022-11-03T19:52:35.199Z,99318.47
2022-11-03T19:55:03.335Z,99208.09
2022-11-03T19:57:30.252Z,99315.22
2022-11-03T19:59:59.035Z,99307.91
2022-11-03T20:02:27.944Z,99309.00
2022-11-03T20:04:54.627Z,99301.38
2022-11-03T20:07:21.351Z,99169.25
2022-11-03T20:09:48.475Z,99213.81
2022-11-03T20:12:18.320Z,99295.19
2022-11-03T20:14:45.081Z,99297.31
2022-11-03T20:17:14.524Z,99281.03
2022-11-03T20:19:41.169Z,99232.66
2022-11-03T20:22:12.229Z,99216.22
2022-11-03T20:24:39.689Z,99246.66
2022-11-03T20:27:06.237Z,99231.13
2022-11-03T20:29:34.887Z,99243.06
2022-11-03T20:32:01.589Z,99276.94
2022-11-03T20:34:28.343Z,99244.06
2022-11-03T20:36:55.606Z,99290.31
2022-11-03T20:39:22.676Z,99198.09
2022-11-03T20:41:51.641Z,99215.56
2022-11-03T20:44:18.197Z,99236.28
2022-11-03T20:46:45.340Z,99238.31
2022-11-03T20:49:12.182Z,99268.97
2022-11-03T20:51:44.007Z,99204.41
2022-11-03T20:54:21.230Z,99236.03
2022-11-03T20:56:54.561Z,99272.66
2022-11-03T20:59:24.614Z,99261.97
2022-11-03T21:01:51.580Z,99258.34
2022-11-03T21:04:20.052Z,99258.84
2022-11-03T21:06:47.393Z,99216.22
2022-11-03T21:09:15.963Z,99249.84
2022-11-03T21:11:43.547Z,99255.00
2022-11-03T21:14:21.694Z,99252.00
2022-11-03T21:17:06.831Z,99238.72
2022-11-03T21:19:52.419Z,99250.78
2022-11-03T21:22:53.337Z,99198.88
2022-11-03T21:25:22.368Z,99210.75
2022-11-03T21:27:49.721Z,99243.34
2022-11-03T21:30:17.074Z,99238.28
2022-11-03T21:32:43.665Z,99205.41
2022-11-03T21:35:14.762Z,99237.63
2022-11-03T21:37:41.335Z,99207.34
2022-11-03T21:40:08.530Z,99243.00
2022-11-03T21:42:53.772Z,99230.69
2022-11-03T21:45:20.371Z,99263.84
2022-11-03T21:48:11.851Z,99213.38
2022-11-03T21:50:39.966Z,99194.09
2022-11-03T21:53:07.227Z,99264.19
2022-11-03T21:55:34.192Z,99268.69
2022-11-03T21:58:02.121Z,99265.59
2022-11-03T22:00:28.794Z,99215.28
2022-11-03T22:02:55.677Z,99214.50
2022-11-03T22:05:22.147Z,99244.22
2022-11-03T22:07:48.673Z,99267.22
2022-11-03T22:10:15.361Z,99269.97
2022-11-03T22:12:41.834Z,99246.03
2022-11-03T22:15:27.454Z,99276.13
2022-11-03T22:18:00.471Z,99272.94
2022-11-03T22:20:45.523Z,99276.97
2022-11-03T22:23:32.808Z,99278.41
2022-11-03T22:26:19.495Z,99265.22
2022-11-03T22:28:45.992Z,99264.47
2022-11-03T22:31:31.195Z,99262.66
2022-11-03T22:34:16.026Z,99261.97
2022-11-03T22:36:42.536Z,99250.00
2022-11-03T22:39:27.591Z,99279.16
2022-11-03T22:42:12.739Z,99245.38
2022-11-03T22:44:57.770Z,99193.78
2022-11-03T22:47:24.495Z,99237.56
2022-11-03T22:49:51.316Z,99287.44
2022-11-03T22:52:17.835Z,99286.13
2022-11-03T22:54:44.295Z,99259.16
2022-11-03T22:57:11.438Z,99255.50
2022-11-03T22:59:37.982Z,99275.75
2022-11-03T23:02:04.542Z,99267.25
2022-11-03T23:04:31.210Z,99273.72
2022-11-03T23:06:57.728Z,99270.69
2022-11-03T23:09:24.227Z,99241.16
2022-11-03T23:11:50.754Z,99273.50
2022-11-03T23:14:17.306Z,99266.88
2022-11-03T23:16:44.866Z,99226.94
2022-11-03T23:19:31.927Z,99278.91
2022-11-03T23:21:58.519Z,99255.16
2022-11-03T23:24:45.375Z,99266.41
2022-11-03T23:27:13.245Z,99267.94
2022-11-03T23:29:39.929Z,99258.53
2022-11-03T23:32:06.851Z,99239.66
2022-11-03T23:34:35.162Z,99196.09
2022-11-03T23:37:02.068Z,99250.41
2022-11-03T23:39:28.616Z,99203.66
2022-11-03T23:41:55.133Z,99269.81
2022-11-03T23:44:21.623Z,99283.63
2022-11-03T23:47:06.719Z,99277.31
2022-11-03T23:49:33.242Z,99264.56
2022-11-03T23:51:59.920Z,99325.28
2022-11-03T23:54:27.317Z,99267.81
2022-11-03T23:57:12.861Z,99315.72
2022-11-03T23:59:39.642Z,99236.72
